Altoona Blair County Airport
KAOO : now visible

Airfield :











YOU CAN JOIN US ON...

 
LOGIN :

Register | Disclaimer

   EN    FR    IT 

 









Legend :    VFR   Marginal VFR   IFR   Intensive IFR   Very Intensive IFR
Visi :
Ceiling :
>= 8 km
>= 3000ft
5 to 8 km
1000 to 3000 ft
1500m to 5 km
500 to 1000 ft
800 to 1500m
200 to 500 ft
< 800m
< 200 ft
Symbols :   Thunderstorms  Fog  Heavy snow  Heavy precipitations  Wind > 20 kt






- Airport Elevation : 1503 ft
- IATA code : AOO


KAOO - Altoona Blair County

CURRENT METAR :
  • 181053Z AUTO 09009KT -SN BKN045 OVC055 M05/M12 A3037 RMK AO2 SNB49 PRESFR SLP306 P0000 T10501117 $

EXPIRED METARs :
  • 180953Z AUTO 13006KT BKN055 OVC080 M05/M12 A3045 RMK AO2 SLP336 T10501117 $
  • 180853Z AUTO 13005KT OVC100 M05/M11 A3050 RMK AO2 SLP350 T10501111 56012 $

TAF KAOO
Valid from the 18 at 10:00 until the 19 at 06:00 UTC


180937Z 1810/1906 14006KT P6SM SCT120
FM181130 15008KT 1SM -SN OVC012
FM181200 15010KT P6SM BKN040
FM181630 16012KT 1SM -SN BR OVC012
FM181900 19011G18KT 3SM -SNPL BR OVC012
FM182300 19010G20KT 4SM -SN BR OVC008 WS020/23047KT



MET'MAP, your aeronautical weather chart ! - Copyright ORBIFLY December 2007 - Disclaimer

ORBIFLY MET'MAP TEAM :

Programming & Development : Alexandra Zaïnal
Concept & original design : Baudouin d'Aumeries
Assistance for programming : Marc-Olivier Méhu
Technical & hardware support : Manuel Goepfert

Contact : metmap@orbifly.com




SOURCES & CREDITS :

   NOAA       Earth
Advisory